Latest Weather Observations for Redcliffe

IDQ60901

Issued at 7:11 am EST Monday 20 April 2015 (issued every 10 minutes, with the page automatically refreshed every 10 minutes)

About weather observations | Map of Brisbane area stations | Latest observations for Brisbane area | Other Formats
Station Details ID: 040958 Name: REDCLIFFE Lat: -27.22 Lon: 153.09 Height: 12.6 m
Data from the previous 72 hours. | See also: Recent months at Redcliffe
Date/Time
EST
Tmp

°C
App
Tmp
°C
Dew
Point
°C
Rel
Hum
%
Delta-T

°C
Wind Press
QNH
hPa
Press
MSL
hPa
Rain
since
9 am
mm
Dir
 
Spd
km/h
Gust
km/h
Spd
kts
Gust
kts
20/07:00am 20.7 19.0 17.3 81 2.1 S 22 30 12 16 1018.2 1018.1 0.0
20/06:30am 20.3 17.8 17.1 82 1.9 S 26 30 14 16 1017.6 1017.5 0.0
20/06:00am 20.3 19.9 17.1 82 1.9 SSW 15 22 8 12 1017.8 1017.7 0.0
20/05:30am 20.6 20.2 17.2 81 2.1 SSW 15 22 8 12 1017.9 1017.8 0.0
20/05:00am 20.6 19.8 17.0 80 2.2 SSW 17 22 9 12 1017.8 1017.7 0.0
20/04:30am 21.0 18.7 17.6 81 2.1 S 26 35 14 19 1017.3 1017.2 0.0
20/04:00am 21.4 20.4 17.6 79 2.3 SSW 19 26 10 14 1017.3 1017.2 0.0
20/03:30am 21.5 21.3 18.5 83 1.9 SW 17 26 9 14 1017.0 1016.9 0.0
20/03:00am 21.5 21.9 19.1 86 1.5 SW 15 20 8 11 1017.0 1016.9 0.0
20/02:30am 21.4 22.8 18.6 84 1.8 WSW 9 13 5 7 1016.7 1016.6 0.0
20/02:00am 21.4 22.5 18.8 85 1.6 WNW 11 17 6 9 1017.1 1017.0 0.0
20/01:30am 21.6 22.6 18.6 83 1.9 WSW 11 15 6 8 1016.5 1016.4 0.0
20/01:00am 21.8 22.6 19.0 84 1.8 SW 13 19 7 10 1017.2 1017.1 0.0
20/12:30am 22.0 23.2 19.0 83 1.9 WSW 11 15 6 8 1017.4 1017.3 0.0
20/12:00am 22.0 23.1 18.8 82 2.0 W 11 15 6 8 1017.3 1017.2 0.0
 
Date/Time
EST
Tmp

°C
App
Tmp
°C
Dew
Point
°C
Rel
Hum
%
Delta-T

°C
Wind Press
QNH
hPa
Press
MSL
hPa
Rain
since
9 am
mm
Dir
 
Spd
km/h
Gust
km/h
Spd
kts
Gust
kts
19/11:30pm 22.9 24.8 19.7 82 2.1 WNW 9 13 5 7 1017.9 1017.8 0.0
19/11:00pm 23.1 25.0 19.7 81 2.2 NW 9 15 5 8 1018.2 1018.1 0.0
19/10:30pm 23.3 25.1 19.5 79 2.4 NW 9 15 5 8 1018.3 1018.2 0.0
19/10:00pm 23.4 25.0 20.0 81 2.2 NNW 11 15 6 8 1018.4 1018.3 0.0
19/09:30pm 23.8 26.2 20.1 80 2.4 N 7 11 4 6 1018.5 1018.4 0.0
19/09:00pm 23.9 26.4 20.2 80 2.4 NNW 7 9 4 5 1018.5 1018.4 0.0
19/08:30pm 24.0 25.4 20.3 80 2.4 N 13 15 7 8 1018.5 1018.4 0.0
19/08:00pm 24.0 25.8 20.3 80 2.4 N 11 15 6 8 1018.4 1018.3 0.0
19/07:30pm 24.1 26.3 20.4 80 2.4 NNW 9 11 5 6 1018.3 1018.2 0.0
19/07:00pm 24.2 24.9 20.5 80 2.4 NNE 17 19 9 10 1017.7 1017.6 0.0
19/06:30pm 24.3 25.0 20.4 79 2.5 NNE 17 19 9 10 1017.6 1017.5 0.0
19/06:00pm 24.4 24.6 20.1 77 2.8 NNE 19 20 10 11 1017.2 1017.1 0.0
19/05:30pm 24.5 24.5 19.8 75 3.0 NNE 19 20 10 11 1017.1 1017.0 0.0
19/05:00pm 24.6 24.7 19.9 75 3.0 NNE 19 22 10 12 1016.9 1016.8 0.0
19/04:30pm 24.7 24.1 19.8 74 3.2 NNE 22 28 12 15 1016.8 1016.7 0.0
19/04:00pm 24.8 24.1 19.6 73 3.3 NE 22 28 12 15 1016.3 1016.2 0.0
19/03:30pm 25.1 24.9 19.7 72 3.5 NE 20 26 11 14 1016.1 1016.0 0.0
19/03:00pm 25.5 25.8 19.6 70 3.8 NE 17 20 9 11 1016.3 1016.2 0.0
19/02:30pm 25.9 25.5 18.8 65 4.5 NE 19 22 10 12 1016.5 1016.4 0.0
19/02:00pm 25.9 25.4 18.6 64 4.6 ENE 19 22 10 12 1016.4 1016.3 0.0
19/01:30pm 25.3 25.1 18.5 66 4.3 ENE 17 19 9 10 1016.9 1016.8 0.0
19/01:00pm 27.4 27.9 19.2 61 5.3 ENE 15 17 8 9 1017.3 1017.2 0.0
19/12:30pm 25.5 25.3 17.7 62 4.9 ENE 15 17 8 9 1017.5 1017.4 0.0
19/12:00pm 27.2 27.2 18.2 58 5.7 ENE 15 17 8 9 1018.1 1018.0 0.0
19/11:30am 27.0 28.6 18.3 59 5.5 E 7 9 4 5 1018.8 1018.7 0.0
19/11:00am 26.5 27.1 17.6 58 5.6 E 11 13 6 7 1019.1 1019.0 0.0
19/10:30am 26.2 26.5 17.0 57 5.7 SE 11 11 6 6 1019.2 1019.1 0.0
19/10:00am 25.2 25.9 17.9 64 4.6 SSE 11 15 6 8 1019.5 1019.4 0.0
19/09:30am 24.7 25.3 17.7 65 4.4 SSW 11 13 6 7 1019.6 1019.5 0.0
19/09:00am 23.9 25.1 18.3 71 3.5 S 9 13 5 7 1019.5 1019.4 0.0
19/08:30am 23.0 24.3 18.5 76 2.8 S 9 11 5 6 1019.6 1019.5 0.0
19/08:00am 22.5 23.6 18.9 80 2.3 SW 11 13 6 7 1019.5 1019.4 0.0
19/07:30am 21.8 23.1 18.4 81 2.1 W 9 11 5 6 1019.4 1019.3 0.0
19/07:00am 20.9 22.4 18.8 88 1.3 W 9 11 5 6 1019.0 1018.9 0.0
19/06:30am 20.0 21.6 18.3 90 1.1 W 7 11 4 6 1018.7 1018.6 0.0
19/06:00am 19.8 21.3 18.1 90 1.0 WSW 7 7 4 4 1018.5 1018.4 0.0
19/05:30am 19.9 20.7 18.2 90 1.1 WSW 11 13 6 7 1018.4 1018.3 0.0
19/05:00am 19.9 21.0 17.9 88 1.2 WSW 9 11 5 6 1018.1 1018.0 0.0
19/04:30am 20.2 21.3 18.0 87 1.4 WSW 9 11 5 6 1018.1 1018.0 0.0
19/04:00am 21.0 22.7 18.4 85 1.6 NNW 7 7 4 4 1018.1 1018.0 0.0
19/03:30am 21.7 22.7 18.7 83 1.9 N 11 11 6 6 1018.3 1018.2 0.0
19/03:00am 21.8 21.6 18.6 82 2.0 NNE 17 20 9 11 1018.4 1018.3 0.0
19/02:30am 21.9 22.5 18.7 82 2.0 N 13 15 7 8 1018.8 1018.7 0.0
19/02:00am 21.6 23.1 19.0 85 1.6 NW 9 17 5 9 1019.0 1018.9 0.0
19/01:30am 21.8 23.2 18.6 82 2.0 WNW 9 11 5 6 1019.4 1019.3 0.0
19/01:00am 23.0 22.8 18.5 76 2.8 N 17 20 9 11 1019.8 1019.7 0.0
19/12:30am 23.2 22.5 18.3 74 3.1 NNE 19 20 10 11 1020.0 1019.9 0.0
19/12:00am 23.2 22.0 18.5 75 3.0 NE 22 26 12 14 1020.1 1020.0 0.0
 
Date/Time
EST
Tmp

°C
App
Tmp
°C
Dew
Point
°C
Rel
Hum
%
Delta-T

°C
Wind Press
QNH
hPa
Press
MSL
hPa
Rain
since
9 am
mm
Dir
 
Spd
km/h
Gust
km/h
Spd
kts
Gust
kts
18/11:30pm 23.0 21.0 18.3 75 2.9 NNE 26 32 14 17 1020.4 1020.3 0.0
18/11:00pm 23.3 20.8 18.8 76 2.8 NE 30 35 16 19 1020.6 1020.5 0.0
18/10:30pm 22.9 20.2 18.4 76 2.8 NE 30 33 16 18 1020.5 1020.4 0.0
18/10:00pm 23.0 19.4 18.5 76 2.8 NE 35 41 19 22 1020.9 1020.8 0.0
18/09:30pm 23.3 21.1 18.6 75 3.0 NE 28 33 15 18 1020.8 1020.7 0.0
18/09:00pm 23.3 20.4 18.8 76 2.8 NE 32 37 17 20 1020.8 1020.7 0.0
18/08:30pm 23.2 20.4 19.1 78 2.6 NE 32 35 17 19 1020.6 1020.5 0.0
18/08:00pm 23.3 20.8 19.7 80 2.3 NE 32 35 17 19 1020.5 1020.4 0.0
18/07:30pm 23.7 21.6 19.0 75 3.0 NE 28 33 15 18 1020.3 1020.2 0.0
18/07:00pm 23.9 22.3 19.2 75 3.0 NE 26 30 14 16 1019.9 1019.8 0.0
18/06:30pm 24.0 22.4 19.3 75 3.0 NE 26 30 14 16 1019.6 1019.5 0.0
18/06:00pm 24.2 22.9 18.2 69 3.8 NE 22 26 12 14 1019.5 1019.4 0.0
18/05:30pm 24.3 23.0 18.2 68 3.8 NE 22 28 12 15 1019.3 1019.2 0.0
18/05:00pm 24.6 23.1 17.8 66 4.2 NE 22 26 12 14 1019.4 1019.3 0.0
18/04:30pm 25.1 23.6 17.8 64 4.6 NE 22 26 12 14 1019.3 1019.2 0.0
18/04:00pm 25.0 23.0 17.5 63 4.7 NE 24 28 13 15 1019.1 1019.0 0.0
18/03:30pm 25.3 23.2 17.2 61 5.0 NE 24 28 13 15 1019.0 1018.9 0.0
18/03:00pm 26.0 24.5 17.6 60 5.3 NE 22 26 12 14 1019.0 1018.9 0.0
18/02:30pm 26.1 25.1 18.0 61 5.1 NE 20 24 11 13 1019.0 1018.9 0.0
18/02:00pm 26.8 25.6 17.6 57 5.8 NE 20 26 11 14 1019.1 1019.0 0.0
18/01:30pm 26.7 25.7 18.0 59 5.5 NE 20 26 11 14 1019.3 1019.2 0.0
18/01:00pm 26.7 26.0 18.3 60 5.3 NE 19 24 10 13 1019.8 1019.7 0.0
18/12:30pm 26.6 25.7 18.2 60 5.3 NE 20 24 11 13 1020.3 1020.2 0.0
18/12:00pm 25.9 24.5 17.0 58 5.5 NE 20 26 11 14 1020.9 1020.8 0.0
18/11:30am 25.9 24.7 17.5 59 5.3 NE 20 26 11 14 1021.4 1021.3 0.0
18/11:00am 26.6 25.9 18.2 60 5.3 NE 19 24 10 13 1021.8 1021.7 0.0
18/10:30am 26.1 24.8 16.9 57 5.7 NE 19 24 10 13 1022.3 1022.2 0.0
18/10:00am 25.7 24.3 17.1 59 5.3 ENE 20 24 11 13 1022.4 1022.3 0.0
18/09:30am 26.0 25.5 17.9 61 5.1 NE 17 20 9 11 1022.8 1022.7 0.0
18/09:00am 25.5 24.8 18.2 64 4.6 ENE 19 22 10 12 1022.6 1022.5 0.0
18/08:30am 25.5 24.0 16.4 57 5.6 NE 19 22 10 12 1022.6 1022.5 0.0
18/08:00am 25.3 24.3 17.5 62 4.9 ENE 19 22 10 12 1022.3 1022.2 0.0
18/07:30am 24.7 23.6 17.4 64 4.5 ENE 19 22 10 12 1022.1 1022.0 0.0
18/07:00am 23.9 22.5 16.9 65 4.3 ENE 20 24 11 13 1021.8 1021.7 0.0
18/06:30am 23.3 21.9 17.1 68 3.8 ENE 20 24 11 13 1021.5 1021.4 0.0
18/06:00am 23.2 21.4 17.0 68 3.8 ENE 22 26 12 14 1021.2 1021.1 0.0
18/05:30am 23.2 21.4 17.0 68 3.8 ENE 22 26 12 14 1021.1 1021.0 0.0
18/05:00am 23.1 20.9 16.9 68 3.8 ENE 24 28 13 15 1021.0 1020.9 0.0
18/04:30am 23.3 21.1 15.9 63 4.5 E 22 32 12 17 1020.9 1020.8 0.0
18/04:00am 22.7 21.9 17.2 71 3.4 ENE 17 20 9 11 1021.0 1020.9 0.0
18/03:30am 23.1 21.6 17.6 71 3.4 E 22 28 12 15 1021.1 1021.0 0.0
18/03:00am 22.5 21.4 17.4 73 3.1 ENE 19 26 10 14 1021.2 1021.1 0.0
18/02:30am 21.0 19.8 17.6 81 2.1 NE 20 32 11 17 1021.5 1021.4 0.0
18/02:00am 21.4 21.6 17.6 79 2.3 ESE 13 15 7 8 1021.8 1021.7 0.0
18/01:30am 21.0 21.0 17.2 79 2.3 ESE 13 15 7 8 1021.9 1021.8 0.0
18/01:00am 21.3 21.3 17.3 78 2.4 ESE 13 15 7 8 1022.0 1021.9 0.0
18/12:30am 22.0 21.8 17.6 76 2.7 ESE 15 17 8 9 1022.2 1022.1 0.0
18/12:00am 22.2 21.2 17.6 75 2.8 E 19 20 10 11 1022.5 1022.4 0.0
 
Date/Time
EST
Tmp

°C
App
Tmp
°C
Dew
Point
°C
Rel
Hum
%
Delta-T

°C
Wind Press
QNH
hPa
Press
MSL
hPa
Rain
since
9 am
mm
Dir
 
Spd
km/h
Gust
km/h
Spd
kts
Gust
kts
17/11:30pm 22.6 21.0 17.5 73 3.2 ESE 22 28 12 15 1022.7 1022.6 0.0
17/11:00pm 22.7 22.0 16.5 68 3.8 ESE 15 19 8 10 1022.8 1022.7 0.0
17/10:30pm 21.9 18.2 17.5 76 2.7 ENE 33 39 18 21 1022.7 1022.6 0.0
17/10:20pm 22.2 21.3 16.9 72 3.2 E 17 37 9 20 1022.8 1022.7 0.0
17/10:00pm 21.8 24.2 17.0 74 2.9 CALM 0 0 0 0 1022.8 1022.7 0.0
17/09:30pm 21.2 23.4 16.6 75 2.8 CALM 0 0 0 0 1022.8 1022.7 0.0
17/09:00pm 22.4 18.6 16.7 70 3.5 ENE 32 41 17 22 1023.0 1022.9 0.0
17/08:30pm 22.8 20.2 17.9 74 3.1 ENE 28 37 15 20 1022.6 1022.5 0.0
17/08:00pm 22.9 21.7 17.1 70 3.6 E 19 20 10 11 1022.6 1022.5 0.0
17/07:30pm 23.2 22.4 17.0 68 3.8 E 17 19 9 10 1022.3 1022.2 0.0
17/07:00pm 23.3 21.7 16.1 64 4.4 E 19 20 10 11 1022.0 1021.9 0.0
17/06:30pm 23.3 21.7 16.1 64 4.4 E 19 20 10 11 1021.8 1021.7 0.0
17/06:00pm 23.6 21.8 15.9 62 4.6 E 20 26 11 14 1021.4 1021.3 0.0
17/05:30pm 23.8 21.5 15.8 61 4.8 E 22 26 12 14 1021.2 1021.1 0.0
17/05:00pm 24.2 22.1 16.2 61 4.9 E 22 26 12 14 1021.0 1020.9 0.0
17/04:30pm 24.5 22.9 16.0 59 5.2 E 19 20 10 11 1020.9 1020.8 0.0
17/04:00pm 24.4 22.6 15.9 59 5.1 E 20 26 11 14 1020.6 1020.5 0.0
17/03:30pm 25.2 23.5 16.3 57 5.5 E 20 26 11 14 1020.6 1020.5 0.0
17/03:00pm 25.2 25.3 16.6 59 5.3 ENE 11 17 6 9 1020.7 1020.6 0.0
17/02:30pm 25.6 26.9 17.5 61 5.1 ENE 7 9 4 5 1020.7 1020.6 0.0
17/02:00pm 25.4 26.4 16.8 59 5.3 ESE 7 9 4 5 1020.8 1020.7 0.0
17/01:30pm 25.9 26.8 17.5 59 5.3 SE 9 11 5 6 1021.1 1021.0 0.0
17/01:00pm 25.3 25.7 16.4 57 5.5 SE 9 11 5 6 1021.3 1021.2 0.0
17/12:30pm 26.3 27.2 17.6 58 5.5 SSE 9 11 5 6 1021.9 1021.8 0.0
17/12:00pm 25.2 25.5 16.9 60 5.1 SSE 11 11 6 6 1022.5 1022.4 0.0
17/11:30am 25.5 25.9 17.2 60 5.2 SSE 11 11 6 6 1023.0 1022.9 0.0
17/11:00am 25.5 25.6 17.4 61 5.0 SSE 13 15 7 8 1023.3 1023.2 0.0
17/10:30am 25.3 26.1 18.2 64 4.5 SSE 11 13 6 7 1023.6 1023.5 0.0
17/10:00am 24.9 25.0 17.4 63 4.7 S 13 15 7 8 1024.0 1023.9 0.0
17/09:30am 24.7 24.5 17.7 65 4.4 S 15 17 8 9 1024.3 1024.2 0.0
17/09:00am 23.2 23.1 17.9 72 3.3 S 15 19 8 10 1024.4 1024.3 0.0
17/08:30am 22.1 22.7 18.5 80 2.3 SSW 13 17 7 9 1024.6 1024.5 0.0
17/08:00am 20.6 20.1 17.0 80 2.2 SSW 15 20 8 11 1024.4 1024.3 0.0
17/07:30am 19.6 19.4 16.8 84 1.7 SW 13 17 7 9 1024.0 1023.9 0.0

Latest Capital City Observations: Canberra | Sydney | Melbourne | Brisbane | Adelaide | Perth | Hobart | Darwin

Other Formats:

Comma delimited format used in spreadsheet applications
http://www.bom.gov.au/fwo/IDQ60901/IDQ60901.95591.axf

JavaScript Object Notation format (JSON) in row-major order
http://www.bom.gov.au/fwo/IDQ60901/IDQ60901.95591.json